sensor_id;sensor_type;location;lat;lon;timestamp;P1;durP1;ratioP1;P2;durP2;ratioP2
58516;SDS011;44308;50.810;0.284;2022-10-16T00:00:37;19.55;;;5.05;;
58516;SDS011;44308;50.810;0.284;2022-10-16T00:03:04;26.38;;;5.55;;
58516;SDS011;44308;50.810;0.284;2022-10-16T00:05:30;22.38;;;5.03;;
58516;SDS011;44308;50.810;0.284;2022-10-16T00:07:56;18.35;;;5.05;;
58516;SDS011;44308;50.810;0.284;2022-10-16T00:10:21;26.80;;;5.07;;
58516;SDS011;44308;50.810;0.284;2022-10-16T00:12:47;22.30;;;4.70;;
58516;SDS011;44308;50.810;0.284;2022-10-16T00:15:16;15.77;;;4.13;;
58516;SDS011;44308;50.810;0.284;2022-10-16T00:17:41;17.65;;;4.68;;
58516;SDS011;44308;50.810;0.284;2022-10-16T00:20:07;29.70;;;5.97;;
58516;SDS011;44308;50.810;0.284;2022-10-16T00:22:33;33.17;;;5.05;;
58516;SDS011;44308;50.810;0.284;2022-10-16T00:24:59;25.73;;;5.93;;
58516;SDS011;44308;50.810;0.284;2022-10-16T00:27:24;11.57;;;4.57;;
58516;SDS011;44308;50.810;0.284;2022-10-16T00:29:51;29.77;;;6.07;;
58516;SDS011;44308;50.810;0.284;2022-10-16T00:32:17;32.55;;;5.18;;
58516;SDS011;44308;50.810;0.284;2022-10-16T00:34:46;23.48;;;5.35;;
58516;SDS011;44308;50.810;0.284;2022-10-16T00:37:12;25.27;;;4.80;;
58516;SDS011;44308;50.810;0.284;2022-10-16T00:39:38;19.67;;;4.88;;
58516;SDS011;44308;50.810;0.284;2022-10-16T00:42:04;20.73;;;4.38;;
58516;SDS011;44308;50.810;0.284;2022-10-16T00:48:17;17.00;;;4.72;;
58516;SDS011;44308;50.810;0.284;2022-10-16T00:50:43;13.23;;;4.07;;
58516;SDS011;44308;50.810;0.284;2022-10-16T00:53:09;19.17;;;4.75;;
58516;SDS011;44308;50.810;0.284;2022-10-16T00:58:59;14.93;;;4.33;;
58516;SDS011;44308;50.810;0.284;2022-10-16T01:01:29;19.98;;;3.97;;
58516;SDS011;44308;50.810;0.284;2022-10-16T01:03:55;19.75;;;4.40;;
58516;SDS011;44308;50.810;0.284;2022-10-16T01:12:02;12.10;;;4.10;;
58516;SDS011;44308;50.810;0.284;2022-10-16T01:17:15;13.43;;;3.88;;
58516;SDS011;44308;50.810;0.284;2022-10-16T01:20:06;11.70;;;3.55;;
58516;SDS011;44308;50.810;0.284;2022-10-16T01:23:00;17.30;;;5.00;;
58516;SDS011;44308;50.810;0.284;2022-10-16T01:28:41;20.30;;;4.73;;
58516;SDS011;44308;50.810;0.284;2022-10-16T01:31:10;21.98;;;5.15;;
58516;SDS011;44308;50.810;0.284;2022-10-16T01:33:40;16.55;;;4.35;;
58516;SDS011;44308;50.810;0.284;2022-10-16T01:36:16;23.52;;;5.53;;
58516;SDS011;44308;50.810;0.284;2022-10-16T01:38:47;15.70;;;4.68;;
58516;SDS011;44308;50.810;0.284;2022-10-16T01:41:21;25.92;;;5.00;;
58516;SDS011;44308;50.810;0.284;2022-10-16T01:43:57;21.83;;;5.63;;
58516;SDS011;44308;50.810;0.284;2022-10-16T01:46:36;20.42;;;5.72;;
58516;SDS011;44308;50.810;0.284;2022-10-16T01:49:04;20.90;;;5.13;;
58516;SDS011;44308;50.810;0.284;2022-10-16T01:51:33;28.63;;;6.43;;
58516;SDS011;44308;50.810;0.284;2022-10-16T01:54:01;34.65;;;5.97;;
58516;SDS011;44308;50.810;0.284;2022-10-16T01:56:29;23.88;;;6.00;;
58516;SDS011;44308;50.810;0.284;2022-10-16T01:58:58;25.60;;;6.15;;
58516;SDS011;44308;50.810;0.284;2022-10-16T02:01:33;22.45;;;4.97;;
58516;SDS011;44308;50.810;0.284;2022-10-16T02:04:03;24.75;;;5.63;;
58516;SDS011;44308;50.810;0.284;2022-10-16T02:06:36;14.40;;;4.55;;
58516;SDS011;44308;50.810;0.284;2022-10-16T02:09:02;23.35;;;4.75;;
58516;SDS011;44308;50.810;0.284;2022-10-16T02:11:28;30.95;;;5.88;;
58516;SDS011;44308;50.810;0.284;2022-10-16T02:13:55;23.15;;;6.68;;
58516;SDS011;44308;50.810;0.284;2022-10-16T02:16:36;21.30;;;5.35;;
58516;SDS011;44308;50.810;0.284;2022-10-16T02:19:15;25.58;;;5.60;;
58516;SDS011;44308;50.810;0.284;2022-10-16T02:21:49;25.30;;;5.60;;
58516;SDS011;44308;50.810;0.284;2022-10-16T02:27:28;16.70;;;4.85;;
58516;SDS011;44308;50.810;0.284;2022-10-16T02:30:08;24.85;;;5.38;;
58516;SDS011;44308;50.810;0.284;2022-10-16T02:32:42;19.70;;;5.22;;
58516;SDS011;44308;50.810;0.284;2022-10-16T02:35:15;27.50;;;5.13;;
58516;SDS011;44308;50.810;0.284;2022-10-16T02:37:42;24.02;;;5.53;;
58516;SDS011;44308;50.810;0.284;2022-10-16T02:40:09;24.70;;;5.57;;
58516;SDS011;44308;50.810;0.284;2022-10-16T02:42:36;26.02;;;6.28;;
58516;SDS011;44308;50.810;0.284;2022-10-16T02:45:05;21.98;;;5.13;;
58516;SDS011;44308;50.810;0.284;2022-10-16T02:47:32;19.73;;;5.20;;
58516;SDS011;44308;50.810;0.284;2022-10-16T02:49:58;15.13;;;4.22;;
58516;SDS011;44308;50.810;0.284;2022-10-16T02:52:24;40.88;;;5.15;;
58516;SDS011;44308;50.810;0.284;2022-10-16T02:57:35;21.92;;;4.55;;
58516;SDS011;44308;50.810;0.284;2022-10-16T03:00:03;26.88;;;4.90;;
58516;SDS011;44308;50.810;0.284;2022-10-16T03:02:30;21.33;;;5.03;;
58516;SDS011;44308;50.810;0.284;2022-10-16T03:04:57;28.35;;;5.15;;
58516;SDS011;44308;50.810;0.284;2022-10-16T03:07:22;24.45;;;5.38;;
58516;SDS011;44308;50.810;0.284;2022-10-16T03:09:48;21.80;;;4.75;;
58516;SDS011;44308;50.810;0.284;2022-10-16T03:12:13;29.25;;;6.15;;
58516;SDS011;44308;50.810;0.284;2022-10-16T03:14:39;24.15;;;5.20;;
58516;SDS011;44308;50.810;0.284;2022-10-16T03:17:05;31.73;;;5.45;;
58516;SDS011;44308;50.810;0.284;2022-10-16T03:19:31;34.85;;;6.07;;
58516;SDS011;44308;50.810;0.284;2022-10-16T03:21:57;40.70;;;6.22;;
58516;SDS011;44308;50.810;0.284;2022-10-16T03:24:24;25.52;;;5.28;;
58516;SDS011;44308;50.810;0.284;2022-10-16T03:26:49;15.43;;;4.35;;
58516;SDS011;44308;50.810;0.284;2022-10-16T03:29:15;15.60;;;3.85;;
58516;SDS011;44308;50.810;0.284;2022-10-16T03:31:41;14.15;;;3.80;;
58516;SDS011;44308;50.810;0.284;2022-10-16T03:34:06;12.80;;;3.00;;
58516;SDS011;44308;50.810;0.284;2022-10-16T03:36:34;23.25;;;3.47;;
58516;SDS011;44308;50.810;0.284;2022-10-16T03:39:00;18.23;;;3.63;;
58516;SDS011;44308;50.810;0.284;2022-10-16T03:41:26;18.90;;;3.90;;
58516;SDS011;44308;50.810;0.284;2022-10-16T03:43:51;17.95;;;3.70;;
58516;SDS011;44308;50.810;0.284;2022-10-16T03:46:17;20.13;;;4.35;;
58516;SDS011;44308;50.810;0.284;2022-10-16T03:48:43;22.67;;;4.22;;
58516;SDS011;44308;50.810;0.284;2022-10-16T03:51:08;17.50;;;4.38;;
58516;SDS011;44308;50.810;0.284;2022-10-16T03:53:34;36.25;;;4.88;;
58516;SDS011;44308;50.810;0.284;2022-10-16T03:56:00;24.38;;;4.95;;
58516;SDS011;44308;50.810;0.284;2022-10-16T03:58:26;21.48;;;4.45;;
58516;SDS011;44308;50.810;0.284;2022-10-16T04:00:51;19.27;;;3.90;;
58516;SDS011;44308;50.810;0.284;2022-10-16T04:03:17;23.65;;;4.90;;
58516;SDS011;44308;50.810;0.284;2022-10-16T04:05:45;14.80;;;4.03;;
58516;SDS011;44308;50.810;0.284;2022-10-16T04:08:10;24.90;;;4.25;;
58516;SDS011;44308;50.810;0.284;2022-10-16T04:10:36;18.45;;;4.32;;
58516;SDS011;44308;50.810;0.284;2022-10-16T04:13:02;25.23;;;4.75;;
58516;SDS011;44308;50.810;0.284;2022-10-16T04:15:29;24.08;;;4.18;;
58516;SDS011;44308;50.810;0.284;2022-10-16T04:17:55;18.38;;;4.40;;
58516;SDS011;44308;50.810;0.284;2022-10-16T04:20:20;18.15;;;5.10;;
58516;SDS011;44308;50.810;0.284;2022-10-16T04:22:46;18.88;;;4.93;;
58516;SDS011;44308;50.810;0.284;2022-10-16T04:25:12;13.07;;;4.20;;
58516;SDS011;44308;50.810;0.284;2022-10-16T04:27:38;18.33;;;5.00;;
58516;SDS011;44308;50.810;0.284;2022-10-16T04:30:04;22.23;;;5.05;;
58516;SDS011;44308;50.810;0.284;2022-10-16T04:32:32;17.48;;;4.25;;
58516;SDS011;44308;50.810;0.284;2022-10-16T04:34:59;32.22;;;4.57;;
58516;SDS011;44308;50.810;0.284;2022-10-16T04:37:25;25.08;;;4.68;;
58516;SDS011;44308;50.810;0.284;2022-10-16T04:39:52;13.27;;;4.25;;
58516;SDS011;44308;50.810;0.284;2022-10-16T04:42:18;19.17;;;4.63;;
58516;SDS011;44308;50.810;0.284;2022-10-16T04:44:45;29.63;;;5.60;;
58516;SDS011;44308;50.810;0.284;2022-10-16T04:47:11;29.48;;;6.03;;
58516;SDS011;44308;50.810;0.284;2022-10-16T04:49:37;32.42;;;5.75;;
58516;SDS011;44308;50.810;0.284;2022-10-16T04:52:03;20.60;;;4.95;;
58516;SDS011;44308;50.810;0.284;2022-10-16T04:57:15;31.10;;;5.68;;
58516;SDS011;44308;50.810;0.284;2022-10-16T04:59:41;32.03;;;6.35;;
58516;SDS011;44308;50.810;0.284;2022-10-16T05:02:06;24.63;;;6.05;;
58516;SDS011;44308;50.810;0.284;2022-10-16T05:04:32;32.88;;;5.60;;
58516;SDS011;44308;50.810;0.284;2022-10-16T05:06:58;43.70;;;6.47;;
58516;SDS011;44308;50.810;0.284;2022-10-16T05:09:23;38.03;;;6.88;;
58516;SDS011;44308;50.810;0.284;2022-10-16T05:11:49;33.53;;;6.32;;
58516;SDS011;44308;50.810;0.284;2022-10-16T05:14:15;22.45;;;5.80;;
58516;SDS011;44308;50.810;0.284;2022-10-16T05:16:41;19.63;;;5.47;;
58516;SDS011;44308;50.810;0.284;2022-10-16T05:19:07;33.75;;;5.43;;
58516;SDS011;44308;50.810;0.284;2022-10-16T05:21:33;21.98;;;5.10;;
58516;SDS011;44308;50.810;0.284;2022-10-16T05:23:58;25.15;;;5.63;;
58516;SDS011;44308;50.810;0.284;2022-10-16T05:26:26;31.80;;;6.47;;
58516;SDS011;44308;50.810;0.284;2022-10-16T05:28:52;46.80;;;6.45;;
58516;SDS011;44308;50.810;0.284;2022-10-16T05:31:17;26.58;;;5.82;;
58516;SDS011;44308;50.810;0.284;2022-10-16T05:33:43;21.70;;;5.10;;
58516;SDS011;44308;50.810;0.284;2022-10-16T05:36:10;19.92;;;5.47;;
58516;SDS011;44308;50.810;0.284;2022-10-16T05:38:37;24.52;;;5.00;;
58516;SDS011;44308;50.810;0.284;2022-10-16T05:41:03;18.48;;;5.03;;
58516;SDS011;44308;50.810;0.284;2022-10-16T05:43:30;16.45;;;4.53;;
58516;SDS011;44308;50.810;0.284;2022-10-16T05:45:59;34.05;;;6.68;;
58516;SDS011;44308;50.810;0.284;2022-10-16T05:51:02;31.25;;;5.95;;
58516;SDS011;44308;50.810;0.284;2022-10-16T05:53:34;45.85;;;6.30;;
58516;SDS011;44308;50.810;0.284;2022-10-16T05:56:04;25.05;;;5.75;;
58516;SDS011;44308;50.810;0.284;2022-10-16T05:58:32;28.48;;;6.53;;
58516;SDS011;44308;50.810;0.284;2022-10-16T06:01:09;23.50;;;6.05;;
58516;SDS011;44308;50.810;0.284;2022-10-16T06:03:37;22.42;;;5.80;;
58516;SDS011;44308;50.810;0.284;2022-10-16T06:08:38;22.20;;;5.75;;
58516;SDS011;44308;50.810;0.284;2022-10-16T06:11:05;32.17;;;6.10;;
58516;SDS011;44308;50.810;0.284;2022-10-16T06:13:32;21.80;;;5.32;;
58516;SDS011;44308;50.810;0.284;2022-10-16T06:16:00;22.33;;;4.88;;
58516;SDS011;44308;50.810;0.284;2022-10-16T06:18:27;22.08;;;4.93;;
58516;SDS011;44308;50.810;0.284;2022-10-16T06:20:53;18.80;;;4.85;;
58516;SDS011;44308;50.810;0.284;2022-10-16T06:23:20;25.35;;;5.38;;
58516;SDS011;44308;50.810;0.284;2022-10-16T06:25:46;26.45;;;4.65;;
58516;SDS011;44308;50.810;0.284;2022-10-16T06:28:13;27.15;;;4.20;;
58516;SDS011;44308;50.810;0.284;2022-10-16T06:30:40;24.08;;;4.70;;
58516;SDS011;44308;50.810;0.284;2022-10-16T06:33:06;24.92;;;5.40;;
58516;SDS011;44308;50.810;0.284;2022-10-16T06:35:31;17.38;;;4.47;;
58516;SDS011;44308;50.810;0.284;2022-10-16T06:37:57;16.60;;;4.57;;
58516;SDS011;44308;50.810;0.284;2022-10-16T06:40:23;21.30;;;4.82;;
58516;SDS011;44308;50.810;0.284;2022-10-16T06:42:49;15.75;;;4.28;;
58516;SDS011;44308;50.810;0.284;2022-10-16T06:45:16;20.77;;;4.32;;
58516;SDS011;44308;50.810;0.284;2022-10-16T06:47:42;22.75;;;4.07;;
58516;SDS011;44308;50.810;0.284;2022-10-16T06:50:08;15.35;;;4.35;;
58516;SDS011;44308;50.810;0.284;2022-10-16T06:52:34;16.30;;;3.88;;
58516;SDS011;44308;50.810;0.284;2022-10-16T06:55:00;18.45;;;4.20;;
58516;SDS011;44308;50.810;0.284;2022-10-16T06:57:27;16.98;;;4.00;;
58516;SDS011;44308;50.810;0.284;2022-10-16T06:59:53;18.42;;;4.25;;
58516;SDS011;44308;50.810;0.284;2022-10-16T07:02:19;14.13;;;3.83;;
58516;SDS011;44308;50.810;0.284;2022-10-16T07:04:44;16.75;;;4.63;;
58516;SDS011;44308;50.810;0.284;2022-10-16T07:07:10;13.05;;;4.53;;
58516;SDS011;44308;50.810;0.284;2022-10-16T07:09:36;20.67;;;4.93;;
58516;SDS011;44308;50.810;0.284;2022-10-16T07:12:01;28.27;;;5.55;;
58516;SDS011;44308;50.810;0.284;2022-10-16T07:14:28;24.08;;;5.45;;
58516;SDS011;44308;50.810;0.284;2022-10-16T07:16:55;21.38;;;5.85;;
58516;SDS011;44308;50.810;0.284;2022-10-16T07:19:21;24.75;;;6.03;;
58516;SDS011;44308;50.810;0.284;2022-10-16T07:21:46;20.35;;;5.90;;
58516;SDS011;44308;50.810;0.284;2022-10-16T07:24:13;21.13;;;5.10;;
58516;SDS011;44308;50.810;0.284;2022-10-16T07:26:43;28.80;;;4.85;;
58516;SDS011;44308;50.810;0.284;2022-10-16T07:29:13;27.42;;;6.00;;
58516;SDS011;44308;50.810;0.284;2022-10-16T07:31:41;18.27;;;5.35;;
58516;SDS011;44308;50.810;0.284;2022-10-16T07:34:07;16.00;;;4.97;;
58516;SDS011;44308;50.810;0.284;2022-10-16T07:36:33;18.92;;;4.72;;
58516;SDS011;44308;50.810;0.284;2022-10-16T07:38:59;18.65;;;5.13;;
58516;SDS011;44308;50.810;0.284;2022-10-16T07:41:25;24.42;;;4.75;;
58516;SDS011;44308;50.810;0.284;2022-10-16T07:43:51;22.25;;;3.83;;
58516;SDS011;44308;50.810;0.284;2022-10-16T07:46:19;19.88;;;4.40;;
58516;SDS011;44308;50.810;0.284;2022-10-16T07:48:46;21.27;;;4.53;;
58516;SDS011;44308;50.810;0.284;2022-10-16T07:51:17;16.85;;;4.45;;
58516;SDS011;44308;50.810;0.284;2022-10-16T07:53:44;12.95;;;3.90;;
58516;SDS011;44308;50.810;0.284;2022-10-16T07:56:11;25.30;;;5.10;;
58516;SDS011;44308;50.810;0.284;2022-10-16T07:58:37;20.65;;;4.60;;
58516;SDS011;44308;50.810;0.284;2022-10-16T08:01:04;15.65;;;4.60;;
58516;SDS011;44308;50.810;0.284;2022-10-16T08:03:32;12.45;;;3.88;;
58516;SDS011;44308;50.810;0.284;2022-10-16T08:05:59;22.15;;;5.05;;
58516;SDS011;44308;50.810;0.284;2022-10-16T08:08:29;31.83;;;5.00;;
58516;SDS011;44308;50.810;0.284;2022-10-16T08:10:55;26.45;;;4.95;;
58516;SDS011;44308;50.810;0.284;2022-10-16T08:13:21;16.45;;;4.40;;
58516;SDS011;44308;50.810;0.284;2022-10-16T08:15:47;29.17;;;4.68;;
58516;SDS011;44308;50.810;0.284;2022-10-16T08:18:13;21.25;;;4.88;;
58516;SDS011;44308;50.810;0.284;2022-10-16T08:20:40;18.45;;;4.40;;
58516;SDS011;44308;50.810;0.284;2022-10-16T08:23:07;20.67;;;4.65;;
58516;SDS011;44308;50.810;0.284;2022-10-16T08:25:37;16.77;;;5.03;;
58516;SDS011;44308;50.810;0.284;2022-10-16T08:28:03;23.13;;;4.38;;
58516;SDS011;44308;50.810;0.284;2022-10-16T08:30:31;15.80;;;4.15;;
58516;SDS011;44308;50.810;0.284;2022-10-16T08:32:57;15.93;;;4.22;;
58516;SDS011;44308;50.810;0.284;2022-10-16T08:35:23;13.40;;;4.70;;
58516;SDS011;44308;50.810;0.284;2022-10-16T08:37:49;21.20;;;4.50;;
58516;SDS011;44308;50.810;0.284;2022-10-16T08:50:51;15.68;;;5.18;;
58516;SDS011;44308;50.810;0.284;2022-10-16T08:53:18;18.70;;;4.57;;
58516;SDS011;44308;50.810;0.284;2022-10-16T08:55:50;17.10;;;4.28;;
58516;SDS011;44308;50.810;0.284;2022-10-16T08:58:21;15.52;;;5.15;;
58516;SDS011;44308;50.810;0.284;2022-10-16T09:00:58;20.38;;;4.45;;
58516;SDS011;44308;50.810;0.284;2022-10-16T09:17:32;30.58;;;4.88;;
58516;SDS011;44308;50.810;0.284;2022-10-16T09:19:57;22.40;;;5.53;;
58516;SDS011;44308;50.810;0.284;2022-10-16T09:22:35;34.92;;;5.47;;
58516;SDS011;44308;50.810;0.284;2022-10-16T09:25:13;10.50;;;4.35;;
58516;SDS011;44308;50.810;0.284;2022-10-16T09:27:45;18.33;;;4.93;;
58516;SDS011;44308;50.810;0.284;2022-10-16T09:30:15;16.17;;;5.00;;
58516;SDS011;44308;50.810;0.284;2022-10-16T09:32:43;22.85;;;7.18;;
58516;SDS011;44308;50.810;0.284;2022-10-16T09:35:16;17.88;;;4.75;;
58516;SDS011;44308;50.810;0.284;2022-10-16T09:40:12;16.25;;;5.05;;
58516;SDS011;44308;50.810;0.284;2022-10-16T09:42:48;24.48;;;4.72;;
58516;SDS011;44308;50.810;0.284;2022-10-16T09:45:22;12.95;;;4.63;;
58516;SDS011;44308;50.810;0.284;2022-10-16T09:47:49;22.45;;;4.60;;
58516;SDS011;44308;50.810;0.284;2022-10-16T09:50:26;25.83;;;4.85;;
58516;SDS011;44308;50.810;0.284;2022-10-16T09:53:12;18.60;;;4.68;;
58516;SDS011;44308;50.810;0.284;2022-10-16T09:55:52;18.67;;;5.43;;
58516;SDS011;44308;50.810;0.284;2022-10-16T09:58:21;17.35;;;4.85;;
58516;SDS011;44308;50.810;0.284;2022-10-16T10:00:52;22.15;;;5.15;;
58516;SDS011;44308;50.810;0.284;2022-10-16T10:06:05;17.88;;;4.72;;
58516;SDS011;44308;50.810;0.284;2022-10-16T10:08:41;21.13;;;5.20;;
58516;SDS011;44308;50.810;0.284;2022-10-16T10:11:17;23.85;;;5.05;;
58516;SDS011;44308;50.810;0.284;2022-10-16T10:13:43;20.58;;;5.13;;
58516;SDS011;44308;50.810;0.284;2022-10-16T10:16:08;22.45;;;5.18;;
58516;SDS011;44308;50.810;0.284;2022-10-16T10:18:34;26.95;;;5.75;;
58516;SDS011;44308;50.810;0.284;2022-10-16T10:21:01;14.73;;;5.03;;
58516;SDS011;44308;50.810;0.284;2022-10-16T10:23:28;14.55;;;4.25;;
58516;SDS011;44308;50.810;0.284;2022-10-16T10:29:05;20.85;;;5.07;;
58516;SDS011;44308;50.810;0.284;2022-10-16T10:31:38;19.65;;;4.75;;
58516;SDS011;44308;50.810;0.284;2022-10-16T10:37:27;15.20;;;5.78;;
58516;SDS011;44308;50.810;0.284;2022-10-16T10:45:27;24.95;;;5.25;;
58516;SDS011;44308;50.810;0.284;2022-10-16T11:03:12;19.10;;;4.25;;
58516;SDS011;44308;50.810;0.284;2022-10-16T11:08:52;20.63;;;4.25;;
58516;SDS011;44308;50.810;0.284;2022-10-16T11:11:24;19.98;;;4.10;;
58516;SDS011;44308;50.810;0.284;2022-10-16T11:14:38;23.20;;;5.03;;
58516;SDS011;44308;50.810;0.284;2022-10-16T11:17:04;18.23;;;3.90;;
58516;SDS011;44308;50.810;0.284;2022-10-16T11:27:47;21.30;;;4.82;;
58516;SDS011;44308;50.810;0.284;2022-10-16T11:30:27;12.88;;;4.38;;
58516;SDS011;44308;50.810;0.284;2022-10-16T11:41:10;19.45;;;4.95;;
58516;SDS011;44308;50.810;0.284;2022-10-16T11:46:28;11.65;;;3.35;;
58516;SDS011;44308;50.810;0.284;2022-10-16T11:49:09;25.40;;;5.18;;
58516;SDS011;44308;50.810;0.284;2022-10-16T11:51:45;12.15;;;3.80;;
58516;SDS011;44308;50.810;0.284;2022-10-16T11:57:01;21.95;;;5.63;;
58516;SDS011;44308;50.810;0.284;2022-10-16T11:59:58;25.60;;;4.72;;
58516;SDS011;44308;50.810;0.284;2022-10-16T12:08:12;10.93;;;3.72;;
58516;SDS011;44308;50.810;0.284;2022-10-16T12:10:40;14.77;;;4.20;;
58516;SDS011;44308;50.810;0.284;2022-10-16T12:13:27;19.67;;;4.00;;
58516;SDS011;44308;50.810;0.284;2022-10-16T12:16:03;26.30;;;4.05;;
58516;SDS011;44308;50.810;0.284;2022-10-16T12:18:48;26.55;;;4.00;;
58516;SDS011;44308;50.810;0.284;2022-10-16T12:21:15;22.05;;;4.07;;
58516;SDS011;44308;50.810;0.284;2022-10-16T12:26:14;17.13;;;4.45;;
58516;SDS011;44308;50.810;0.284;2022-10-16T12:28:50;26.13;;;5.13;;
58516;SDS011;44308;50.810;0.284;2022-10-16T12:31:16;16.23;;;4.70;;
58516;SDS011;44308;50.810;0.284;2022-10-16T12:33:56;25.33;;;4.28;;
58516;SDS011;44308;50.810;0.284;2022-10-16T12:36:29;12.93;;;3.70;;
58516;SDS011;44308;50.810;0.284;2022-10-16T12:38:57;15.13;;;4.15;;
58516;SDS011;44308;50.810;0.284;2022-10-16T12:41:30;19.83;;;3.92;;
58516;SDS011;44308;50.810;0.284;2022-10-16T12:43:59;19.13;;;4.22;;
58516;SDS011;44308;50.810;0.284;2022-10-16T12:51:39;16.42;;;3.35;;
58516;SDS011;44308;50.810;0.284;2022-10-16T12:59:28;12.27;;;3.25;;
58516;SDS011;44308;50.810;0.284;2022-10-16T13:10:38;23.08;;;3.55;;
58516;SDS011;44308;50.810;0.284;2022-10-16T13:16:07;9.02;;;2.83;;
58516;SDS011;44308;50.810;0.284;2022-10-16T13:18:55;15.73;;;3.90;;
58516;SDS011;44308;50.810;0.284;2022-10-16T13:27:50;11.25;;;2.92;;
58516;SDS011;44308;50.810;0.284;2022-10-16T13:30:39;12.23;;;2.85;;
58516;SDS011;44308;50.810;0.284;2022-10-16T13:35:48;9.27;;;2.88;;
58516;SDS011;44308;50.810;0.284;2022-10-16T13:38:20;11.00;;;3.22;;
58516;SDS011;44308;50.810;0.284;2022-10-16T13:40:52;8.50;;;2.35;;
58516;SDS011;44308;50.810;0.284;2022-10-16T13:46:19;19.77;;;3.08;;
58516;SDS011;44308;50.810;0.284;2022-10-16T13:49:00;7.43;;;2.58;;
58516;SDS011;44308;50.810;0.284;2022-10-16T13:51:28;8.73;;;2.83;;
58516;SDS011;44308;50.810;0.284;2022-10-16T13:53:55;12.38;;;3.10;;
58516;SDS011;44308;50.810;0.284;2022-10-16T13:56:24;21.80;;;3.65;;
58516;SDS011;44308;50.810;0.284;2022-10-16T13:58:59;15.25;;;3.40;;
58516;SDS011;44308;50.810;0.284;2022-10-16T14:01:30;13.73;;;3.17;;
58516;SDS011;44308;50.810;0.284;2022-10-16T14:04:05;10.70;;;2.60;;
58516;SDS011;44308;50.810;0.284;2022-10-16T14:06:34;16.00;;;3.25;;
58516;SDS011;44308;50.810;0.284;2022-10-16T14:09:05;7.90;;;3.03;;
58516;SDS011;44308;50.810;0.284;2022-10-16T14:11:32;14.32;;;3.40;;
58516;SDS011;44308;50.810;0.284;2022-10-16T14:14:00;8.18;;;2.33;;
58516;SDS011;44308;50.810;0.284;2022-10-16T14:16:29;9.18;;;2.50;;
58516;SDS011;44308;50.810;0.284;2022-10-16T14:21:26;12.00;;;2.92;;
58516;SDS011;44308;50.810;0.284;2022-10-16T14:23:52;18.45;;;3.33;;
58516;SDS011;44308;50.810;0.284;2022-10-16T14:26:20;11.00;;;2.53;;
58516;SDS011;44308;50.810;0.284;2022-10-16T14:28:48;8.50;;;2.20;;
58516;SDS011;44308;50.810;0.284;2022-10-16T14:33:51;13.45;;;2.78;;
58516;SDS011;44308;50.810;0.284;2022-10-16T14:36:17;14.00;;;2.70;;
58516;SDS011;44308;50.810;0.284;2022-10-16T14:39:04;9.25;;;3.17;;
58516;SDS011;44308;50.810;0.284;2022-10-16T14:41:46;14.27;;;3.20;;
58516;SDS011;44308;50.810;0.284;2022-10-16T14:44:14;16.75;;;3.80;;
58516;SDS011;44308;50.810;0.284;2022-10-16T14:46:42;8.27;;;3.38;;
58516;SDS011;44308;50.810;0.284;2022-10-16T14:51:35;6.03;;;2.30;;
58516;SDS011;44308;50.810;0.284;2022-10-16T14:54:01;13.77;;;3.53;;
58516;SDS011;44308;50.810;0.284;2022-10-16T14:59:28;30.10;;;3.58;;
58516;SDS011;44308;50.810;0.284;2022-10-16T15:02:06;6.28;;;2.83;;
58516;SDS011;44308;50.810;0.284;2022-10-16T15:04:41;10.27;;;3.17;;
58516;SDS011;44308;50.810;0.284;2022-10-16T15:07:10;14.25;;;3.08;;
58516;SDS011;44308;50.810;0.284;2022-10-16T15:09:35;15.90;;;3.00;;
58516;SDS011;44308;50.810;0.284;2022-10-16T15:12:01;6.82;;;3.05;;
58516;SDS011;44308;50.810;0.284;2022-10-16T15:17:12;9.05;;;2.83;;
58516;SDS011;44308;50.810;0.284;2022-10-16T15:19:37;9.52;;;3.13;;
58516;SDS011;44308;50.810;0.284;2022-10-16T15:22:03;17.02;;;3.63;;
58516;SDS011;44308;50.810;0.284;2022-10-16T15:24:31;11.52;;;2.63;;
58516;SDS011;44308;50.810;0.284;2022-10-16T15:26:57;10.57;;;2.95;;
58516;SDS011;44308;50.810;0.284;2022-10-16T15:29:22;15.82;;;2.85;;
58516;SDS011;44308;50.810;0.284;2022-10-16T15:31:48;10.95;;;2.53;;
58516;SDS011;44308;50.810;0.284;2022-10-16T15:34:14;6.47;;;2.10;;
58516;SDS011;44308;50.810;0.284;2022-10-16T15:36:40;10.43;;;2.45;;
58516;SDS011;44308;50.810;0.284;2022-10-16T15:39:12;6.78;;;1.92;;
58516;SDS011;44308;50.810;0.284;2022-10-16T15:41:39;10.57;;;2.60;;
58516;SDS011;44308;50.810;0.284;2022-10-16T15:44:06;6.45;;;2.50;;
58516;SDS011;44308;50.810;0.284;2022-10-16T15:46:32;9.15;;;2.40;;
58516;SDS011;44308;50.810;0.284;2022-10-16T15:48:59;6.43;;;2.30;;
58516;SDS011;44308;50.810;0.284;2022-10-16T15:51:26;5.78;;;2.53;;
58516;SDS011;44308;50.810;0.284;2022-10-16T15:53:57;11.63;;;2.47;;
58516;SDS011;44308;50.810;0.284;2022-10-16T15:56:26;10.73;;;3.10;;
58516;SDS011;44308;50.810;0.284;2022-10-16T15:58:53;11.73;;;2.70;;
58516;SDS011;44308;50.810;0.284;2022-10-16T16:01:19;8.65;;;2.30;;
58516;SDS011;44308;50.810;0.284;2022-10-16T16:03:46;9.27;;;2.47;;
58516;SDS011;44308;50.810;0.284;2022-10-16T16:06:14;8.68;;;2.75;;
58516;SDS011;44308;50.810;0.284;2022-10-16T16:08:40;6.40;;;2.25;;
58516;SDS011;44308;50.810;0.284;2022-10-16T16:11:10;8.27;;;2.38;;
58516;SDS011;44308;50.810;0.284;2022-10-16T16:13:38;11.90;;;2.40;;
58516;SDS011;44308;50.810;0.284;2022-10-16T16:16:07;16.38;;;3.28;;
58516;SDS011;44308;50.810;0.284;2022-10-16T16:18:34;16.10;;;4.25;;
58516;SDS011;44308;50.810;0.284;2022-10-16T16:21:00;10.88;;;3.17;;
58516;SDS011;44308;50.810;0.284;2022-10-16T16:23:25;12.43;;;3.00;;
58516;SDS011;44308;50.810;0.284;2022-10-16T16:29:32;9.55;;;2.88;;
58516;SDS011;44308;50.810;0.284;2022-10-16T16:32:01;23.50;;;3.45;;
58516;SDS011;44308;50.810;0.284;2022-10-16T16:34:28;11.02;;;3.55;;
58516;SDS011;44308;50.810;0.284;2022-10-16T16:36:57;24.80;;;2.88;;
58516;SDS011;44308;50.810;0.284;2022-10-16T16:39:23;16.02;;;2.95;;
58516;SDS011;44308;50.810;0.284;2022-10-16T16:41:49;15.20;;;3.47;;
58516;SDS011;44308;50.810;0.284;2022-10-16T16:44:15;19.42;;;3.67;;
58516;SDS011;44308;50.810;0.284;2022-10-16T16:46:42;11.20;;;2.35;;
58516;SDS011;44308;50.810;0.284;2022-10-16T16:49:09;13.10;;;2.95;;
58516;SDS011;44308;50.810;0.284;2022-10-16T16:51:36;17.77;;;3.28;;
58516;SDS011;44308;50.810;0.284;2022-10-16T16:54:03;15.15;;;3.03;;
58516;SDS011;44308;50.810;0.284;2022-10-16T16:56:29;11.15;;;3.00;;
58516;SDS011;44308;50.810;0.284;2022-10-16T16:58:56;11.32;;;3.17;;
58516;SDS011;44308;50.810;0.284;2022-10-16T17:01:23;11.40;;;3.15;;
58516;SDS011;44308;50.810;0.284;2022-10-16T17:03:50;12.32;;;2.83;;
58516;SDS011;44308;50.810;0.284;2022-10-16T17:09:22;9.85;;;2.80;;
58516;SDS011;44308;50.810;0.284;2022-10-16T17:11:48;8.18;;;2.05;;
58516;SDS011;44308;50.810;0.284;2022-10-16T17:14:14;11.85;;;2.88;;
58516;SDS011;44308;50.810;0.284;2022-10-16T17:16:41;19.65;;;4.03;;
58516;SDS011;44308;50.810;0.284;2022-10-16T17:19:11;13.40;;;6.57;;
58516;SDS011;44308;50.810;0.284;2022-10-16T17:21:41;27.30;;;14.30;;
58516;SDS011;44308;50.810;0.284;2022-10-16T17:24:07;17.25;;;6.97;;
58516;SDS011;44308;50.810;0.284;2022-10-16T17:29:06;25.63;;;13.50;;
58516;SDS011;44308;50.810;0.284;2022-10-16T17:31:33;33.08;;;20.30;;
58516;SDS011;44308;50.810;0.284;2022-10-16T17:34:01;56.65;;;30.33;;
58516;SDS011;44308;50.810;0.284;2022-10-16T17:36:31;51.63;;;20.30;;
58516;SDS011;44308;50.810;0.284;2022-10-16T17:39:00;35.38;;;21.55;;
58516;SDS011;44308;50.810;0.284;2022-10-16T17:41:28;37.55;;;23.10;;
58516;SDS011;44308;50.810;0.284;2022-10-16T17:43:55;38.53;;;20.77;;